Time;durP1;ratioP1;P1;durP2;ratioP2;P2;SDS_P1;SDS_P2;PMS_P1;PMS_P2;Temp;Humidity;BMP_temperature;BMP_pressure;BME280_temperature;BME280_humidity;BME280_pressure;Samples;Min_cycle;Max_cycle;Signal;HPM_P1;HPM_P2
2023/12/18 00:00:40;;;;;;;10.38;1.65;;;;;;;;;;2079323;28;20029;-74
2023/12/18 00:01:59;;;;;;;10.75;2.00;;;;;;;;;;2071129;28;20112;-75
2023/12/18 00:03:17;;;;;;;11.18;2.00;;;;;;;;;;2065956;28;20076;-74
2023/12/18 00:04:36;;;;;;;10.23;1.98;;;;;;;;;;2075619;28;20030;-74
2023/12/18 00:05:55;;;;;;;9.65;2.35;;;;;;;;;;2079079;28;20030;-74
2023/12/18 00:07:15;;;;;;;9.35;2.28;;;;;;;;;;2078804;28;20093;-76
2023/12/18 00:08:33;;;;;;;9.85;2.42;;;;;;;;;;2068952;28;20030;-75
2023/12/18 00:09:53;;;;;;;11.60;2.13;;;;;;;;;;2077489;28;20022;-75
2023/12/18 00:11:13;;;;;;;10.38;1.98;;;;;;;;;;2079578;28;20026;-76
2023/12/18 00:12:32;;;;;;;8.82;2.08;;;;;;;;;;2078963;28;20029;-75
2023/12/18 00:13:51;;;;;;;12.90;2.67;;;;;;;;;;2080818;28;20021;-75
2023/12/18 00:15:10;;;;;;;10.18;2.13;;;;;;;;;;2075663;28;20452;-75
2023/12/18 00:16:29;;;;;;;8.20;1.58;;;;;;;;;;2074862;28;20116;-75
2023/12/18 00:17:48;;;;;;;12.60;2.00;;;;;;;;;;2079924;28;20116;-75
2023/12/18 00:19:07;;;;;;;7.93;1.75;;;;;;;;;;2078136;28;20025;-75
2023/12/18 00:20:26;;;;;;;9.90;1.92;;;;;;;;;;2075370;28;20021;-75
2023/12/18 00:21:45;;;;;;;10.02;2.00;;;;;;;;;;2077387;28;20483;-75
2023/12/18 00:23:03;;;;;;;7.00;2.33;;;;;;;;;;2079869;28;20470;-75
2023/12/18 00:24:22;;;;;;;13.88;2.17;;;;;;;;;;2080401;28;20030;-75
2023/12/18 00:25:43;;;;;;;5.53;1.98;;;;;;;;;;2079926;28;20037;-75
2023/12/18 00:27:01;;;;;;;8.98;2.38;;;;;;;;;;2072623;28;20105;-74
2023/12/18 00:28:20;;;;;;;8.50;2.08;;;;;;;;;;2075516;28;20129;-74
2023/12/18 00:29:39;;;;;;;7.65;1.75;;;;;;;;;;2073078;28;20482;-74
2023/12/18 00:30:58;;;;;;;8.88;1.77;;;;;;;;;;2077706;28;20025;-74
2023/12/18 00:32:17;;;;;;;8.38;1.80;;;;;;;;;;2081423;28;20021;-74
2023/12/18 00:33:36;;;;;;;9.32;1.75;;;;;;;;;;2078490;28;20026;-75
2023/12/18 00:34:55;;;;;;;8.15;2.47;;;;;;;;;;2078829;28;20030;-75
2023/12/18 00:36:14;;;;;;;9.32;1.83;;;;;;;;;;2072276;28;20026;-74
2023/12/18 00:37:33;;;;;;;11.48;2.20;;;;;;;;;;2078708;28;20033;-75
2023/12/18 00:38:52;;;;;;;11.05;1.90;;;;;;;;;;2080547;28;20100;-74
2023/12/18 00:40:11;;;;;;;5.00;1.63;;;;;;;;;;2079898;28;20041;-75
2023/12/18 00:41:30;;;;;;;9.80;2.45;;;;;;;;;;2080305;28;20041;-75
2023/12/18 00:42:49;;;;;;;13.98;2.45;;;;;;;;;;2080044;28;20041;-75
2023/12/18 00:44:08;;;;;;;8.88;2.10;;;;;;;;;;2078840;28;20066;-74
2023/12/18 00:45:27;;;;;;;7.32;1.73;;;;;;;;;;2072998;28;20383;-74
2023/12/18 00:46:46;;;;;;;11.30;2.10;;;;;;;;;;2078278;28;20046;-74
2023/12/18 00:48:05;;;;;;;8.27;1.67;;;;;;;;;;2073614;28;20038;-75
2023/12/18 00:49:27;;;;;;;6.65;1.77;;;;;;;;;;2077951;28;20033;-74
2023/12/18 00:50:46;;;;;;;10.40;2.60;;;;;;;;;;2079060;28;20029;-75
2023/12/18 00:52:05;;;;;;;11.07;2.03;;;;;;;;;;2073771;28;20097;-75
2023/12/18 00:53:24;;;;;;;7.38;1.88;;;;;;;;;;2075484;28;20414;-75
2023/12/18 00:54:42;;;;;;;14.15;2.22;;;;;;;;;;2080018;28;20022;-75
2023/12/18 00:56:02;;;;;;;12.82;2.58;;;;;;;;;;2075102;28;20021;-76
2023/12/18 00:57:21;;;;;;;9.27;2.08;;;;;;;;;;2071306;28;20026;-74
2023/12/18 00:58:40;;;;;;;18.40;2.25;;;;;;;;;;2075567;28;20499;-75
2023/12/18 00:59:59;;;;;;;9.98;2.22;;;;;;;;;;2071686;28;20038;-75
2023/12/18 01:01:18;;;;;;;7.80;1.65;;;;;;;;;;2077698;28;20041;-74
2023/12/18 01:02:37;;;;;;;11.07;1.77;;;;;;;;;;2072931;28;20033;-76
2023/12/18 01:03:56;;;;;;;10.63;1.85;;;;;;;;;;2069991;28;20029;-74
2023/12/18 01:05:15;;;;;;;10.60;2.20;;;;;;;;;;2074558;28;20029;-75
2023/12/18 01:06:34;;;;;;;10.68;1.92;;;;;;;;;;2078967;28;20025;-75
2023/12/18 01:07:53;;;;;;;12.63;1.90;;;;;;;;;;2073204;28;20478;-75
2023/12/18 01:09:12;;;;;;;10.15;2.05;;;;;;;;;;2075582;28;20030;-75
2023/12/18 01:10:31;;;;;;;11.45;2.03;;;;;;;;;;2078590;28;20025;-76
2023/12/18 01:11:50;;;;;;;13.82;2.40;;;;;;;;;;2081300;28;20374;-75
2023/12/18 01:13:09;;;;;;;15.80;2.47;;;;;;;;;;2079412;28;20029;-75
2023/12/18 01:14:28;;;;;;;8.65;2.28;;;;;;;;;;2073946;28;20440;-75
2023/12/18 01:15:47;;;;;;;14.68;2.38;;;;;;;;;;2074286;28;20037;-75
2023/12/18 01:17:06;;;;;;;9.88;2.30;;;;;;;;;;2069826;28;20512;-74
2023/12/18 01:18:24;;;;;;;12.32;2.42;;;;;;;;;;2077842;28;20037;-75
2023/12/18 01:19:43;;;;;;;9.55;2.22;;;;;;;;;;2079093;28;20029;-75
2023/12/18 01:21:03;;;;;;;8.98;1.98;;;;;;;;;;2083430;28;20037;-75
2023/12/18 01:22:22;;;;;;;10.38;2.10;;;;;;;;;;2081338;28;20013;-75
2023/12/18 01:23:41;;;;;;;10.73;2.45;;;;;;;;;;2080228;28;20120;-74
2023/12/18 01:25:00;;;;;;;14.52;2.47;;;;;;;;;;2077318;28;20029;-74
2023/12/18 01:26:19;;;;;;;13.10;2.15;;;;;;;;;;2078731;28;20101;-75
2023/12/18 01:27:39;;;;;;;9.30;2.13;;;;;;;;;;2079338;28;20116;-75
2023/12/18 01:28:58;;;;;;;14.50;2.33;;;;;;;;;;2076065;28;20042;-76
2023/12/18 01:30:17;;;;;;;12.85;2.67;;;;;;;;;;2081156;28;20510;-74
2023/12/18 01:31:36;;;;;;;12.65;2.80;;;;;;;;;;2079023;28;20041;-74
2023/12/18 01:32:55;;;;;;;12.13;3.17;;;;;;;;;;2077401;28;20026;-74
2023/12/18 01:34:14;;;;;;;11.55;2.28;;;;;;;;;;2078847;28;20034;-75
2023/12/18 01:35:33;;;;;;;11.10;2.08;;;;;;;;;;2075670;28;20422;-74
2023/12/18 01:36:52;;;;;;;15.32;2.33;;;;;;;;;;2074150;28;20057;-74
2023/12/18 01:38:11;;;;;;;14.98;2.10;;;;;;;;;;2070137;28;20034;-74
2023/12/18 01:39:30;;;;;;;10.75;2.10;;;;;;;;;;2077307;28;20394;-74
2023/12/18 01:40:49;;;;;;;12.07;2.30;;;;;;;;;;2079697;28;20417;-75
2023/12/18 01:42:08;;;;;;;11.80;2.17;;;;;;;;;;2079086;28;21036;-75
2023/12/18 01:43:27;;;;;;;11.65;1.70;;;;;;;;;;2078822;28;20029;-74
2023/12/18 01:44:48;;;;;;;13.73;2.65;;;;;;;;;;2075559;28;20030;-74
2023/12/18 01:46:07;;;;;;;11.65;2.40;;;;;;;;;;2078189;28;20033;-75
2023/12/18 01:47:26;;;;;;;10.52;2.45;;;;;;;;;;2074485;28;20034;-74
2023/12/18 01:48:45;;;;;;;14.15;2.17;;;;;;;;;;2074170;28;20033;-74
2023/12/18 01:50:05;;;;;;;10.57;2.05;;;;;;;;;;2078892;28;20456;-75
2023/12/18 01:51:24;;;;;;;12.82;2.92;;;;;;;;;;2074507;28;20030;-75
2023/12/18 01:52:42;;;;;;;19.23;2.28;;;;;;;;;;2078775;28;20030;-74
2023/12/18 01:54:02;;;;;;;10.35;2.33;;;;;;;;;;2078389;28;20026;-74
2023/12/18 01:55:21;;;;;;;13.48;2.20;;;;;;;;;;2079089;28;20061;-75
2023/12/18 01:56:40;;;;;;;9.27;2.63;;;;;;;;;;2074994;28;20025;-74
2023/12/18 01:58:00;;;;;;;10.85;2.28;;;;;;;;;;2077857;28;20033;-74
2023/12/18 01:59:20;;;;;;;10.98;2.63;;;;;;;;;;2079946;28;20045;-74
2023/12/18 02:00:40;;;;;;;11.00;2.50;;;;;;;;;;2070796;28;20030;-76
2023/12/18 02:01:59;;;;;;;10.77;3.10;;;;;;;;;;2076317;28;20506;-75
2023/12/18 02:03:19;;;;;;;10.23;2.35;;;;;;;;;;2074678;28;20038;-75
2023/12/18 02:04:38;;;;;;;13.93;2.45;;;;;;;;;;2078155;28;20029;-75
2023/12/18 02:05:57;;;;;;;10.85;1.80;;;;;;;;;;2079289;28;20033;-74
2023/12/18 02:07:16;;;;;;;11.38;2.63;;;;;;;;;;2071712;28;20045;-74
2023/12/18 02:08:35;;;;;;;15.40;2.65;;;;;;;;;;2070123;28;20037;-75
2023/12/18 02:09:54;;;;;;;18.98;2.53;;;;;;;;;;2077979;28;20498;-75
2023/12/18 02:11:13;;;;;;;7.15;2.28;;;;;;;;;;2079483;28;20041;-75
2023/12/18 02:12:31;;;;;;;11.00;2.20;;;;;;;;;;2079114;28;20072;-75
2023/12/18 02:13:50;;;;;;;18.02;2.50;;;;;;;;;;2073202;28;20446;-76
2023/12/18 02:15:09;;;;;;;10.45;2.13;;;;;;;;;;2078143;28;20108;-74
2023/12/18 02:16:28;;;;;;;10.68;2.05;;;;;;;;;;2080344;28;20025;-75
2023/12/18 02:17:47;;;;;;;9.55;2.67;;;;;;;;;;2077890;28;20018;-75
2023/12/18 02:19:20;;;;;;;15.50;2.50;;;;;;;;;;2077885;28;20030;-75
2023/12/18 02:20:42;;;;;;;25.10;3.28;;;;;;;;;;2078517;28;20459;-76
2023/12/18 02:22:01;;;;;;;11.45;2.80;;;;;;;;;;2079369;28;20625;-75
2023/12/18 02:23:20;;;;;;;15.80;2.50;;;;;;;;;;2071593;28;20495;-75
2023/12/18 02:24:39;;;;;;;15.55;2.40;;;;;;;;;;2075321;28;20057;-75
2023/12/18 02:25:58;;;;;;;11.45;2.22;;;;;;;;;;2074645;28;20695;-75
2023/12/18 02:27:17;;;;;;;13.40;2.20;;;;;;;;;;2075618;28;20037;-75
2023/12/18 02:28:36;;;;;;;11.57;2.28;;;;;;;;;;2070691;28;20046;-74
2023/12/18 02:29:55;;;;;;;19.42;2.72;;;;;;;;;;2076915;28;20203;-74
2023/12/18 02:31:14;;;;;;;9.73;2.63;;;;;;;;;;2078060;28;20030;-74
2023/12/18 02:32:35;;;;;;;12.23;2.60;;;;;;;;;;2081674;28;20021;-74
2023/12/18 02:33:54;;;;;;;16.45;2.78;;;;;;;;;;2079107;28;20021;-74
2023/12/18 02:35:13;;;;;;;14.02;2.30;;;;;;;;;;2079723;28;20017;-74
2023/12/18 02:36:32;;;;;;;12.98;2.17;;;;;;;;;;2073044;28;20026;-74
2023/12/18 02:37:51;;;;;;;16.27;2.20;;;;;;;;;;2078494;28;20498;-74
2023/12/18 02:39:10;;;;;;;13.10;2.38;;;;;;;;;;2077864;28;20029;-75
2023/12/18 02:40:29;;;;;;;11.70;2.60;;;;;;;;;;2078034;28;20038;-75
2023/12/18 02:41:48;;;;;;;14.85;3.08;;;;;;;;;;2074457;28;20033;-75
2023/12/18 02:43:07;;;;;;;17.35;2.83;;;;;;;;;;2078778;28;20025;-73
2023/12/18 02:44:26;;;;;;;16.67;3.38;;;;;;;;;;2082017;28;20101;-75
2023/12/18 02:45:45;;;;;;;10.52;2.85;;;;;;;;;;2079692;28;20030;-75
2023/12/18 02:47:03;;;;;;;20.83;2.20;;;;;;;;;;2086622;28;20036;-76
2023/12/18 02:48:23;;;;;;;13.75;2.50;;;;;;;;;;2089642;28;20033;-74
2023/12/18 02:49:43;;;;;;;20.10;3.38;;;;;;;;;;2086869;28;20029;-74
2023/12/18 02:51:02;;;;;;;12.13;2.65;;;;;;;;;;2083092;28;20033;-75
2023/12/18 02:52:21;;;;;;;15.82;3.05;;;;;;;;;;2083635;28;20498;-75
2023/12/18 02:53:40;;;;;;;13.63;2.50;;;;;;;;;;2082254;28;20037;-76
2023/12/18 02:55:00;;;;;;;11.73;2.88;;;;;;;;;;2080575;28;20030;-75
2023/12/18 02:56:19;;;;;;;17.85;2.78;;;;;;;;;;2087776;28;20014;-75
2023/12/18 02:57:38;;;;;;;13.60;2.30;;;;;;;;;;2089272;28;20014;-76
2023/12/18 02:58:57;;;;;;;12.52;1.98;;;;;;;;;;2088887;28;20081;-75
2023/12/18 03:00:16;;;;;;;13.48;2.25;;;;;;;;;;2087355;28;20092;-74
2023/12/18 03:01:35;;;;;;;16.60;3.00;;;;;;;;;;2083895;28;20029;-74
2023/12/18 03:02:55;;;;;;;20.70;2.50;;;;;;;;;;2084437;28;20041;-75
2023/12/18 03:04:18;;;;;;;19.75;2.58;;;;;;;;;;2081475;28;20026;-75
2023/12/18 03:05:37;;;;;;;17.85;2.58;;;;;;;;;;2070497;28;20026;-75
2023/12/18 03:06:56;;;;;;;22.60;2.80;;;;;;;;;;2075950;28;20391;-75
2023/12/18 03:08:15;;;;;;;16.42;2.70;;;;;;;;;;2081074;28;20148;-75
2023/12/18 03:09:34;;;;;;;15.70;2.92;;;;;;;;;;2078369;28;20401;-75
2023/12/18 03:10:53;;;;;;;15.85;3.13;;;;;;;;;;2074091;28;20495;-75
2023/12/18 03:12:12;;;;;;;19.05;3.45;;;;;;;;;;2076906;28;20500;-75
2023/12/18 03:13:31;;;;;;;17.30;2.63;;;;;;;;;;2078914;28;20030;-75
2023/12/18 03:14:50;;;;;;;14.82;2.72;;;;;;;;;;2080427;28;20045;-74
2023/12/18 03:16:09;;;;;;;16.45;2.72;;;;;;;;;;2081777;28;20021;-75
2023/12/18 03:17:28;;;;;;;14.00;2.40;;;;;;;;;;2081325;28;20430;-74
2023/12/18 03:18:48;;;;;;;17.48;3.20;;;;;;;;;;2080053;28;20021;-74
2023/12/18 03:20:07;;;;;;;11.07;1.92;;;;;;;;;;2080647;28;20045;-75
2023/12/18 03:21:26;;;;;;;14.25;2.88;;;;;;;;;;2079160;28;20095;-75
2023/12/18 03:22:45;;;;;;;12.68;3.10;;;;;;;;;;2074600;28;20030;-75
2023/12/18 03:24:04;;;;;;;13.55;2.00;;;;;;;;;;2077592;28;20025;-74
2023/12/18 03:25:23;;;;;;;20.75;2.60;;;;;;;;;;2072027;28;20034;-74
2023/12/18 03:26:41;;;;;;;9.35;2.53;;;;;;;;;;2079033;28;20490;-75
2023/12/18 03:28:00;;;;;;;20.75;3.00;;;;;;;;;;2080631;28;20112;-75
2023/12/18 03:29:19;;;;;;;13.13;2.97;;;;;;;;;;2076766;28;20116;-75
2023/12/18 03:30:38;;;;;;;17.70;2.65;;;;;;;;;;2080269;28;20029;-75
2023/12/18 03:31:57;;;;;;;12.48;2.53;;;;;;;;;;2067532;28;20034;-75
2023/12/18 03:33:16;;;;;;;14.50;2.83;;;;;;;;;;2075533;28;20037;-75
2023/12/18 03:34:35;;;;;;;11.07;2.08;;;;;;;;;;2072526;28;20037;-75
2023/12/18 03:35:54;;;;;;;15.80;3.00;;;;;;;;;;2078882;28;20104;-75
2023/12/18 03:37:13;;;;;;;19.95;2.85;;;;;;;;;;2080303;28;20129;-75
2023/12/18 03:38:32;;;;;;;19.17;3.08;;;;;;;;;;2075917;28;21224;-75
2023/12/18 03:39:51;;;;;;;17.33;2.65;;;;;;;;;;2078115;28;20026;-75
2023/12/18 03:41:10;;;;;;;12.27;2.30;;;;;;;;;;2079833;28;20025;-74
2023/12/18 03:42:29;;;;;;;15.40;2.97;;;;;;;;;;2072895;28;20463;-75
2023/12/18 03:43:50;;;;;;;16.98;3.03;;;;;;;;;;2077339;28;20105;-75
2023/12/18 03:45:09;;;;;;;13.05;2.33;;;;;;;;;;2075563;28;20026;-75
2023/12/18 03:46:28;;;;;;;15.48;3.00;;;;;;;;;;2078917;28;20026;-75
2023/12/18 03:47:47;;;;;;;18.10;2.95;;;;;;;;;;2080338;28;20123;-74
2023/12/18 03:49:06;;;;;;;12.90;2.58;;;;;;;;;;2073118;28;20487;-74
2023/12/18 03:50:25;;;;;;;12.52;2.78;;;;;;;;;;2077942;28;21280;-74
2023/12/18 03:51:44;;;;;;;14.70;2.53;;;;;;;;;;2079130;28;20025;-75
2023/12/18 03:53:03;;;;;;;16.20;3.20;;;;;;;;;;2076353;28;20038;-74
2023/12/18 03:54:22;;;;;;;18.58;3.28;;;;;;;;;;2078698;28;20510;-75
2023/12/18 03:55:41;;;;;;;19.52;3.03;;;;;;;;;;2079742;28;20038;-74
2023/12/18 03:57:00;;;;;;;20.05;2.60;;;;;;;;;;2080838;28;20029;-75
2023/12/18 03:58:19;;;;;;;18.63;3.22;;;;;;;;;;2073493;28;20018;-75
2023/12/18 03:59:38;;;;;;;18.33;3.15;;;;;;;;;;2077792;28;20022;-75
2023/12/18 04:00:57;;;;;;;14.90;2.72;;;;;;;;;;2079308;28;20030;-74
2023/12/18 04:02:16;;;;;;;13.20;2.45;;;;;;;;;;2068482;28;20057;-74
2023/12/18 04:03:35;;;;;;;22.55;3.88;;;;;;;;;;2075944;28;20056;-75
2023/12/18 04:04:54;;;;;;;15.20;2.78;;;;;;;;;;2076031;28;20037;-75
2023/12/18 04:06:13;;;;;;;22.75;3.25;;;;;;;;;;2066552;28;20027;-75
2023/12/18 04:07:32;;;;;;;20.52;3.45;;;;;;;;;;2075219;28;20041;-75
2023/12/18 04:08:51;;;;;;;16.85;3.28;;;;;;;;;;2079740;28;20037;-75
2023/12/18 04:10:10;;;;;;;18.13;2.85;;;;;;;;;;2080314;28;20137;-75
2023/12/18 04:11:29;;;;;;;19.45;3.70;;;;;;;;;;2079939;28;20034;-75
2023/12/18 04:12:48;;;;;;;16.38;3.28;;;;;;;;;;2081417;28;20033;-75
2023/12/18 04:14:07;;;;;;;15.35;3.10;;;;;;;;;;2070925;28;20694;-75
2023/12/18 04:15:26;;;;;;;15.68;2.75;;;;;;;;;;2078276;28;20383;-74
2023/12/18 04:16:45;;;;;;;12.23;2.97;;;;;;;;;;2074257;28;20030;-74
2023/12/18 04:18:05;;;;;;;17.80;3.58;;;;;;;;;;2075445;28;20061;-75
2023/12/18 04:19:24;;;;;;;18.50;3.20;;;;;;;;;;2073474;28;20030;-75
2023/12/18 04:20:43;;;;;;;19.60;2.92;;;;;;;;;;2079052;28;20022;-74
2023/12/18 04:22:02;;;;;;;22.95;3.42;;;;;;;;;;2079721;28;20030;-75
2023/12/18 04:23:21;;;;;;;19.20;2.95;;;;;;;;;;2076534;28;20034;-75
2023/12/18 04:24:40;;;;;;;24.98;3.45;;;;;;;;;;2079094;28;20045;-75
2023/12/18 04:25:59;;;;;;;20.98;3.00;;;;;;;;;;2079093;28;20030;-76
2023/12/18 04:27:18;;;;;;;18.02;3.17;;;;;;;;;;2078698;28;20884;-74
2023/12/18 04:28:37;;;;;;;15.00;3.17;;;;;;;;;;2079138;28;20037;-75
2023/12/18 04:29:56;;;;;;;20.27;3.58;;;;;;;;;;2080791;28;20034;-75
2023/12/18 04:31:20;;;;;;;18.25;2.83;;;;;;;;;;2081022;28;20026;-76
2023/12/18 04:32:39;;;;;;;12.45;2.92;;;;;;;;;;2073784;28;20025;-74
2023/12/18 04:33:57;;;;;;;13.57;2.50;;;;;;;;;;2077053;28;20049;-75
2023/12/18 04:35:16;;;;;;;19.00;2.75;;;;;;;;;;2079650;28;20037;-75
2023/12/18 04:36:39;;;;;;;18.52;3.72;;;;;;;;;;2079984;28;20451;-74
2023/12/18 04:37:58;;;;;;;18.40;2.95;;;;;;;;;;2081689;28;20022;-74
2023/12/18 04:39:18;;;;;;;23.17;3.17;;;;;;;;;;2080173;28;20510;-75
2023/12/18 04:40:37;;;;;;;19.73;3.22;;;;;;;;;;2080940;28;20037;-75
2023/12/18 04:41:56;;;;;;;21.52;3.65;;;;;;;;;;2078927;28;20061;-74
2023/12/18 04:43:15;;;;;;;22.27;3.25;;;;;;;;;;2077384;28;20490;-74
2023/12/18 04:44:34;;;;;;;17.60;3.00;;;;;;;;;;2076883;28;20041;-75
2023/12/18 04:45:53;;;;;;;19.27;3.25;;;;;;;;;;2078257;28;20030;-75
2023/12/18 04:47:11;;;;;;;17.85;2.83;;;;;;;;;;2079208;28;20041;-75
2023/12/18 04:48:30;;;;;;;23.38;3.72;;;;;;;;;;2080949;28;20116;-75
2023/12/18 04:49:50;;;;;;;23.58;3.67;;;;;;;;;;2079518;28;20131;-75
2023/12/18 04:51:09;;;;;;;24.75;3.65;;;;;;;;;;2073154;28;20510;-76
2023/12/18 04:52:28;;;;;;;22.20;3.95;;;;;;;;;;2071612;28;20030;-75
2023/12/18 04:53:47;;;;;;;16.67;2.67;;;;;;;;;;2077172;28;20025;-76
2023/12/18 04:55:06;;;;;;;16.60;2.70;;;;;;;;;;2078862;28;20116;-74
2023/12/18 04:56:25;;;;;;;24.80;3.65;;;;;;;;;;2080262;28;20014;-76
2023/12/18 04:57:44;;;;;;;15.18;3.30;;;;;;;;;;2079047;28;20375;-74
2023/12/18 04:59:03;;;;;;;19.52;2.63;;;;;;;;;;2074053;28;20030;-74
2023/12/18 05:00:22;;;;;;;21.13;3.92;;;;;;;;;;2075563;28;20030;-74
2023/12/18 05:01:42;;;;;;;17.48;3.40;;;;;;;;;;2074259;28;20037;-75
2023/12/18 05:03:01;;;;;;;19.70;3.55;;;;;;;;;;2077995;28;20025;-75
2023/12/18 05:04:20;;;;;;;20.60;3.63;;;;;;;;;;2078844;28;20029;-75
2023/12/18 05:05:39;;;;;;;24.80;3.47;;;;;;;;;;2073177;28;20030;-75
2023/12/18 05:06:58;;;;;;;21.38;3.70;;;;;;;;;;2077592;28;20033;-75
2023/12/18 05:08:16;;;;;;;22.20;2.85;;;;;;;;;;2081039;28;20037;-75
2023/12/18 05:09:35;;;;;;;23.63;3.65;;;;;;;;;;2080686;28;20145;-74
2023/12/18 05:10:55;;;;;;;16.70;2.60;;;;;;;;;;2077781;28;20052;-75
2023/12/18 05:12:14;;;;;;;18.30;2.80;;;;;;;;;;2077708;28;20030;-75
2023/12/18 05:13:33;;;;;;;20.63;3.25;;;;;;;;;;2079093;28;20057;-75
2023/12/18 05:14:52;;;;;;;18.20;3.53;;;;;;;;;;2081080;28;20014;-75
2023/12/18 05:16:12;;;;;;;24.65;4.03;;;;;;;;;;2071860;28;20026;-74
2023/12/18 05:17:31;;;;;;;22.58;3.45;;;;;;;;;;2077755;28;20025;-74
2023/12/18 05:18:50;;;;;;;16.52;2.70;;;;;;;;;;2079438;28;20022;-75
2023/12/18 05:20:12;;;;;;;28.85;3.97;;;;;;;;;;2079185;28;20057;-74
2023/12/18 05:21:31;;;;;;;19.00;2.92;;;;;;;;;;2078647;28;20411;-75
2023/12/18 05:22:50;;;;;;;20.13;3.80;;;;;;;;;;2078417;28;20021;-75
2023/12/18 05:24:09;;;;;;;20.58;3.13;;;;;;;;;;2074594;28;20026;-75
2023/12/18 05:25:27;;;;;;;18.70;3.45;;;;;;;;;;2077752;28;20041;-75
2023/12/18 05:26:46;;;;;;;24.23;2.95;;;;;;;;;;2080156;28;20486;-76
2023/12/18 05:28:05;;;;;;;20.77;3.22;;;;;;;;;;2079042;28;20034;-75
2023/12/18 05:29:24;;;;;;;22.13;3.65;;;;;;;;;;2072574;28;20036;-75
2023/12/18 05:30:43;;;;;;;18.90;2.78;;;;;;;;;;2076680;28;20029;-76
2023/12/18 05:32:02;;;;;;;22.92;3.38;;;;;;;;;;2074391;28;20518;-76
2023/12/18 05:33:21;;;;;;;23.95;3.85;;;;;;;;;;2072125;28;20034;-74
2023/12/18 05:34:41;;;;;;;20.63;3.20;;;;;;;;;;2075453;28;20041;-74
2023/12/18 05:36:00;;;;;;;18.23;3.78;;;;;;;;;;2079368;28;20478;-74
2023/12/18 05:37:20;;;;;;;14.77;2.97;;;;;;;;;;2078640;28;20034;-74
2023/12/18 05:38:40;;;;;;;17.13;3.67;;;;;;;;;;2078919;28;20363;-73
2023/12/18 05:39:59;;;;;;;16.95;2.67;;;;;;;;;;2078807;28;20058;-75
2023/12/18 05:41:18;;;;;;;20.92;3.95;;;;;;;;;;2079947;28;20025;-74
2023/12/18 05:42:37;;;;;;;19.30;3.10;;;;;;;;;;2074224;28;20030;-75
2023/12/18 05:43:55;;;;;;;19.08;3.33;;;;;;;;;;2079155;28;20033;-74
2023/12/18 05:45:14;;;;;;;22.48;3.25;;;;;;;;;;2077270;28;20029;-74
2023/12/18 05:46:34;;;;;;;22.33;3.28;;;;;;;;;;2080025;28;20486;-75
2023/12/18 05:47:52;;;;;;;20.65;3.22;;;;;;;;;;2072269;28;20038;-75
2023/12/18 05:49:12;;;;;;;13.10;3.33;;;;;;;;;;2078226;28;20038;-74
2023/12/18 05:50:32;;;;;;;18.33;3.65;;;;;;;;;;2077513;28;20414;-75
2023/12/18 05:51:51;;;;;;;24.52;3.25;;;;;;;;;;2079749;28;20617;-75
2023/12/18 05:53:10;;;;;;;15.43;3.05;;;;;;;;;;2073408;28;20499;-76
2023/12/18 05:54:29;;;;;;;25.27;3.88;;;;;;;;;;2078437;28;20033;-75
2023/12/18 05:55:48;;;;;;;20.08;4.10;;;;;;;;;;2079622;28;20025;-76
2023/12/18 05:57:07;;;;;;;18.30;3.03;;;;;;;;;;2077818;28;20116;-74
2023/12/18 05:58:26;;;;;;;16.70;3.55;;;;;;;;;;2079404;28;21046;-74
2023/12/18 05:59:45;;;;;;;23.27;3.55;;;;;;;;;;2077621;28;20105;-75
2023/12/18 06:01:04;;;;;;;20.00;3.85;;;;;;;;;;2067694;28;20034;-76
2023/12/18 06:02:24;;;;;;;23.27;3.83;;;;;;;;;;2074361;28;20033;-75
2023/12/18 06:03:43;;;;;;;21.17;3.65;;;;;;;;;;2077492;28;20538;-76
2023/12/18 06:05:02;;;;;;;20.88;3.47;;;;;;;;;;2072093;28;20495;-74
2023/12/18 06:06:21;;;;;;;16.27;3.38;;;;;;;;;;2079697;28;20510;-74
2023/12/18 06:07:41;;;;;;;14.07;2.88;;;;;;;;;;2077405;28;20449;-77
2023/12/18 06:09:00;;;;;;;13.30;3.25;;;;;;;;;;2078088;28;20055;-75
2023/12/18 06:10:20;;;;;;;16.80;3.13;;;;;;;;;;2079393;28;20026;-74
2023/12/18 06:11:38;;;;;;;19.27;3.10;;;;;;;;;;2070797;28;20499;-74
2023/12/18 06:12:57;;;;;;;23.15;3.78;;;;;;;;;;2072412;28;20069;-74
2023/12/18 06:14:16;;;;;;;17.42;3.42;;;;;;;;;;2075703;28;20033;-74
2023/12/18 06:15:36;;;;;;;22.80;3.38;;;;;;;;;;2079475;28;20029;-75
2023/12/18 06:16:54;;;;;;;16.42;2.90;;;;;;;;;;2077792;28;20109;-75
2023/12/18 06:18:13;;;;;;;14.27;2.15;;;;;;;;;;2081062;28;20029;-75
2023/12/18 06:19:34;;;;;;;20.48;3.38;;;;;;;;;;2082194;28;20033;-75
2023/12/18 06:20:53;;;;;;;19.92;3.08;;;;;;;;;;2084379;28;20137;-75
2023/12/18 06:22:12;;;;;;;16.63;3.03;;;;;;;;;;2087120;28;20051;-75
2023/12/18 06:23:32;;;;;;;17.38;3.53;;;;;;;;;;2080284;28;20037;-75
2023/12/18 06:24:51;;;;;;;15.20;2.90;;;;;;;;;;2077134;28;20029;-75
2023/12/18 06:26:10;;;;;;;15.57;3.08;;;;;;;;;;2085184;28;20025;-74
2023/12/18 06:27:29;;;;;;;21.55;2.85;;;;;;;;;;2082373;28;20080;-76
2023/12/18 06:28:47;;;;;;;16.92;2.45;;;;;;;;;;2073846;28;20061;-74
2023/12/18 06:30:07;;;;;;;24.08;3.67;;;;;;;;;;2073039;28;20062;-74
2023/12/18 06:31:26;;;;;;;19.98;3.65;;;;;;;;;;2070550;28;20027;-74
2023/12/18 06:32:45;;;;;;;28.58;3.63;;;;;;;;;;2071582;28;20038;-75
2023/12/18 06:34:04;;;;;;;16.20;3.38;;;;;;;;;;2070052;28;20480;-75
2023/12/18 06:35:23;;;;;;;16.08;2.85;;;;;;;;;;2071528;28;20058;-76
2023/12/18 06:36:43;;;;;;;16.65;2.85;;;;;;;;;;2072398;28;20411;-74
2023/12/18 06:38:03;;;;;;;22.52;3.13;;;;;;;;;;2073977;28;20496;-76
2023/12/18 06:39:22;;;;;;;20.42;3.20;;;;;;;;;;2069563;28;20042;-73
2023/12/18 06:40:42;;;;;;;13.50;2.53;;;;;;;;;;2073098;28;20038;-76
2023/12/18 06:42:01;;;;;;;18.40;3.53;;;;;;;;;;2069636;28;20068;-75
2023/12/18 06:43:20;;;;;;;18.77;3.13;;;;;;;;;;2069356;28;20034;-75
2023/12/18 06:44:39;;;;;;;17.02;3.40;;;;;;;;;;2065434;28;20018;-75
2023/12/18 06:45:59;;;;;;;17.30;2.55;;;;;;;;;;2063757;28;20510;-75
2023/12/18 06:47:18;;;;;;;15.98;3.00;;;;;;;;;;2063911;28;20042;-75
2023/12/18 06:48:39;;;;;;;13.40;3.40;;;;;;;;;;2063534;28;20042;-75
2023/12/18 06:49:58;;;;;;;14.40;2.58;;;;;;;;;;2064382;28;20030;-73
2023/12/18 06:51:17;;;;;;;16.70;2.80;;;;;;;;;;2064151;28;20026;-74
2023/12/18 06:52:37;;;;;;;12.48;3.08;;;;;;;;;;2064363;28;20188;-75
2023/12/18 06:53:56;;;;;;;17.20;2.63;;;;;;;;;;2063277;28;20034;-74
2023/12/18 06:55:15;;;;;;;10.75;2.05;;;;;;;;;;2064580;28;20058;-75
2023/12/18 06:56:34;;;;;;;14.38;2.10;;;;;;;;;;2062738;28;20035;-74
2023/12/18 06:57:53;;;;;;;15.10;2.88;;;;;;;;;;2063290;28;20023;-75
2023/12/18 06:59:12;;;;;;;11.73;3.08;;;;;;;;;;2063469;28;21096;-75
2023/12/18 07:00:31;;;;;;;14.52;2.85;;;;;;;;;;2065128;28;20450;-75
2023/12/18 07:01:50;;;;;;;18.63;2.78;;;;;;;;;;2063018;28;20030;-75
2023/12/18 07:03:09;;;;;;;13.27;3.05;;;;;;;;;;2065377;28;20034;-76
2023/12/18 07:04:28;;;;;;;14.30;3.30;;;;;;;;;;2066122;28;20035;-74
2023/12/18 07:05:47;;;;;;;13.68;3.20;;;;;;;;;;2065799;28;20026;-75
2023/12/18 07:07:07;;;;;;;14.18;2.78;;;;;;;;;;2060119;28;20034;-74
2023/12/18 07:08:29;;;;;;;15.05;3.00;;;;;;;;;;2061721;28;20054;-76
2023/12/18 07:09:48;;;;;;;20.25;2.90;;;;;;;;;;2064858;28;20038;-76
2023/12/18 07:11:07;;;;;;;20.85;3.33;;;;;;;;;;2064322;28;20042;-76
2023/12/18 07:12:26;;;;;;;16.23;3.10;;;;;;;;;;2063868;28;20030;-76
2023/12/18 07:13:44;;;;;;;24.05;3.45;;;;;;;;;;2064979;28;20023;-76
2023/12/18 07:15:04;;;;;;;16.50;3.08;;;;;;;;;;2065054;28;20463;-75
2023/12/18 07:16:23;;;;;;;14.73;2.80;;;;;;;;;;2064363;28;20034;-75
2023/12/18 07:17:42;;;;;;;15.27;3.13;;;;;;;;;;2063578;28;21946;-75
2023/12/18 07:19:01;;;;;;;13.45;2.78;;;;;;;;;;2064747;28;20039;-75
2023/12/18 07:20:20;;;;;;;14.00;2.70;;;;;;;;;;2064432;28;20038;-74
2023/12/18 07:21:39;;;;;;;18.15;3.03;;;;;;;;;;2064327;28;20022;-75
2023/12/18 07:22:58;;;;;;;16.58;3.40;;;;;;;;;;2065617;28;20431;-76
2023/12/18 07:24:17;;;;;;;14.80;2.67;;;;;;;;;;2070065;28;20475;-75
2023/12/18 07:25:36;;;;;;;14.82;2.85;;;;;;;;;;2066304;28;20066;-75
2023/12/18 07:26:55;;;;;;;12.70;2.92;;;;;;;;;;2063896;28;20027;-74
2023/12/18 07:28:14;;;;;;;12.95;3.00;;;;;;;;;;2063315;28;20113;-74
2023/12/18 07:29:33;;;;;;;9.73;2.95;;;;;;;;;;2071778;28;20507;-75
2023/12/18 07:30:52;;;;;;;13.63;2.83;;;;;;;;;;2071553;28;20026;-74
2023/12/18 07:32:11;;;;;;;14.15;3.38;;;;;;;;;;2070601;28;20415;-75
2023/12/18 07:33:30;;;;;;;16.30;2.53;;;;;;;;;;2072895;28;20530;-74
2023/12/18 07:34:49;;;;;;;20.20;2.90;;;;;;;;;;2073666;28;20112;-74
2023/12/18 07:36:09;;;;;;;15.43;2.70;;;;;;;;;;2073280;28;20122;-75
2023/12/18 07:37:28;;;;;;;10.43;2.63;;;;;;;;;;2073267;28;20117;-74
2023/12/18 07:38:48;;;;;;;14.80;2.33;;;;;;;;;;2069813;28;20069;-74
2023/12/18 07:40:07;;;;;;;15.13;2.75;;;;;;;;;;2072072;28;20554;-75
2023/12/18 07:41:30;;;;;;;15.73;2.97;;;;;;;;;;2071775;28;20073;-75
2023/12/18 07:42:49;;;;;;;12.77;2.50;;;;;;;;;;2070214;28;20046;-75
2023/12/18 07:44:08;;;;;;;19.45;3.00;;;;;;;;;;2072209;28;20475;-74
2023/12/18 07:45:27;;;;;;;11.02;2.70;;;;;;;;;;2073950;28;20050;-74
2023/12/18 07:46:47;;;;;;;15.80;3.53;;;;;;;;;;2072005;28;20038;-75
2023/12/18 07:48:07;;;;;;;13.65;2.60;;;;;;;;;;2071007;28;20026;-74